Time;durP1;ratioP1;P1;durP2;ratioP2;P2;SDS_P1;SDS_P2;PMS_P1;PMS_P2;Temp;Humidity;BMP_temperature;BMP_pressure;BME280_temperature;BME280_humidity;BME280_pressure;Samples;Min_cycle;Max_cycle;Signal;HPM_P1;HPM_P2
2022/01/26 00:07:03;;;;;;;22.80;12.52;;;;;;;3.62;100.00;102130.53;5040106;28;20140;-74
2022/01/26 00:09:31;;;;;;;17.83;10.15;;;;;;;3.60;100.00;102128.78;5044168;28;20111;-73
2022/01/26 00:11:58;;;;;;;21.48;11.82;;;;;;;3.58;100.00;102127.94;5010663;28;20046;-73
2022/01/26 00:14:25;;;;;;;21.60;12.13;;;;;;;3.61;100.00;102125.34;5035124;28;20118;-73
2022/01/26 00:16:52;;;;;;;21.02;11.52;;;;;;;3.62;100.00;102129.66;5028883;28;20083;-74
2022/01/26 00:19:27;;;;;;;23.65;12.52;;;;;;;3.64;100.00;102133.09;5011614;28;20038;-74
2022/01/26 00:21:56;;;;;;;23.75;13.10;;;;;;;3.55;100.00;102123.59;5011704;28;20056;-74
2022/01/26 00:24:51;;;;;;;23.13;12.43;;;;;;;3.58;100.00;102128.81;5021023;28;20407;-74
2022/01/26 00:27:36;;;;;;;25.38;12.43;;;;;;;3.58;100.00;102135.75;5027536;28;20049;-74
2022/01/26 00:31:59;;;;;;;27.20;13.63;;;;;;;3.59;100.00;102138.34;4995590;28;20080;-74
2022/01/26 00:34:18;;;;;;;24.55;12.55;;;;;;;3.62;100.00;102127.06;5026860;28;20092;-75
2022/01/26 00:38:46;;;;;;;25.10;12.80;;;;;;;3.53;100.00;102128.84;5027187;28;20052;-74
2022/01/26 00:41:17;;;;;;;26.35;13.55;;;;;;;3.59;100.00;102127.06;5023499;28;20052;-74
2022/01/26 00:43:54;;;;;;;28.35;13.38;;;;;;;3.61;100.00;102120.13;5029016;28;20132;-74
2022/01/26 00:46:22;;;;;;;26.30;13.25;;;;;;;3.60;100.00;102123.56;5032114;28;20048;-74
2022/01/26 00:48:50;;;;;;;27.15;14.27;;;;;;;3.59;100.00;102127.06;5036826;28;20053;-74
2022/01/26 00:51:20;;;;;;;25.92;13.93;;;;;;;3.61;100.00;102128.78;5030405;28;20562;-74
2022/01/26 00:54:09;;;;;;;25.05;13.57;;;;;;;3.55;100.00;102121.84;5031099;28;20136;-73
2022/01/26 00:56:36;;;;;;;26.88;13.88;;;;;;;3.56;100.00;102127.97;5027740;28;20661;-73
2022/01/26 00:59:03;;;;;;;31.70;14.82;;;;;;;3.54;100.00;102133.16;5024012;28;20106;-73
2022/01/26 01:01:32;;;;;;;26.60;14.57;;;;;;;3.60;100.00;102121.84;5015657;28;20414;-73
2022/01/26 01:03:59;;;;;;;31.95;16.23;;;;;;;3.65;100.00;102121.81;5036779;28;20156;-73
2022/01/26 01:06:30;;;;;;;35.88;16.02;;;;;;;3.57;100.00;102121.00;5019977;28;20131;-73
2022/01/26 01:09:00;;;;;;;29.38;15.15;;;;;;;3.63;100.00;102131.38;5015558;28;20071;-73
2022/01/26 01:11:28;;;;;;;28.98;15.05;;;;;;;3.56;100.00;102133.16;5029759;28;20051;-74
2022/01/26 01:13:56;;;;;;;31.65;15.60;;;;;;;3.51;100.00;102138.41;5037003;28;20048;-74
2022/01/26 01:16:24;;;;;;;32.75;17.70;;;;;;;3.43;100.00;102132.38;5053474;28;20140;-74
2022/01/26 01:19:04;;;;;;;36.20;16.83;;;;;;;3.50;100.00;102133.19;5016316;28;20052;-74
2022/01/26 01:24:47;;;;;;;40.33;17.50;;;;;;;3.45;100.00;102129.75;5033228;28;20120;-73
2022/01/26 01:27:41;;;;;;;42.72;19.10;;;;;;;3.47;100.00;102133.22;5038152;28;20107;-73
2022/01/26 01:33:05;;;;;;;42.28;18.17;;;;;;;3.47;100.00;102138.44;5044364;28;20132;-73
2022/01/26 01:35:35;;;;;;;38.20;16.90;;;;;;;3.48;100.00;102125.38;5040075;28;20110;-74
2022/01/26 01:38:11;;;;;;;35.92;17.55;;;;;;;3.47;100.00;102135.81;5043907;28;20052;-73
2022/01/26 01:40:43;;;;;;;31.95;15.63;;;;;;;3.45;100.00;102128.00;5030955;28;20050;-74
2022/01/26 01:43:11;;;;;;;34.33;15.57;;;;;;;3.38;100.00;102120.22;5039148;28;20053;-73
2022/01/26 01:45:45;;;;;;;43.00;17.88;;;;;;;3.34;100.00;102121.16;5029071;28;20169;-73
2022/01/26 01:48:18;;;;;;;40.07;17.03;;;;;;;3.35;100.00;102126.34;5037418;28;20128;-72
2022/01/26 01:50:46;;;;;;;33.15;14.63;;;;;;;3.35;100.00;102120.25;5031570;28;20135;-73
2022/01/26 01:53:16;;;;;;;32.35;14.57;;;;;;;3.33;100.00;102112.44;5028581;28;20470;-72
2022/01/26 01:55:50;;;;;;;31.80;14.50;;;;;;;3.37;100.00;102115.91;5013932;28;20475;-72
2022/01/26 01:58:18;;;;;;;32.33;15.65;;;;;;;3.32;100.00;102112.47;5048004;28;20326;-73
2022/01/26 02:00:46;;;;;;;35.60;15.85;;;;;;;3.33;100.00;102119.38;5029125;28;21133;-73
2022/01/26 02:03:14;;;;;;;28.38;13.55;;;;;;;3.29;100.00;102113.34;5015459;28;20143;-73
2022/01/26 02:05:41;;;;;;;31.90;15.00;;;;;;;3.26;100.00;102106.41;5045082;28;20064;-73
2022/01/26 02:08:08;;;;;;;30.38;14.40;;;;;;;3.24;100.00;102102.97;5046757;28;20135;-73
2022/01/26 02:10:36;;;;;;;31.05;13.43;;;;;;;3.26;100.00;102100.34;5007814;28;20057;-73
2022/01/26 02:13:29;;;;;;;35.50;15.40;;;;;;;3.21;100.00;102105.56;5038208;28;20156;-74
2022/01/26 02:16:09;;;;;;;31.58;15.05;;;;;;;3.24;100.00;102113.38;5027269;28;20103;-73
2022/01/26 02:22:04;;;;;;;33.25;14.27;;;;;;;3.24;100.00;102115.09;5048582;28;20132;-74
2022/01/26 02:50:15;;;;;;;27.23;13.52;;;;;;;3.36;100.00;102077.72;5009819;28;20188;-73
2022/01/26 02:55:44;;;;;;;34.60;15.27;;;;;;;3.33;100.00;102068.19;5048738;28;20096;-74
2022/01/26 03:01:31;;;;;;;25.80;13.63;;;;;;;3.26;100.00;102069.13;5042963;28;20054;-73
2022/01/26 03:04:08;;;;;;;31.90;15.20;;;;;;;3.25;100.00;102073.47;5010903;28;20041;-73
2022/01/26 03:06:43;;;;;;;30.35;14.73;;;;;;;3.29;100.00;102076.91;5029240;28;20075;-73
2022/01/26 03:09:14;;;;;;;31.38;15.00;;;;;;;3.24;100.00;102079.53;5038814;28;20045;-73
2022/01/26 03:11:44;;;;;;;30.42;14.73;;;;;;;3.19;100.00;102077.81;5010501;28;20149;-73
2022/01/26 03:14:31;;;;;;;30.10;13.40;;;;;;;3.23;100.00;102074.31;5034137;28;20049;-73
2022/01/26 03:17:07;;;;;;;30.52;15.35;;;;;;;3.26;100.00;102076.94;5022501;28;20132;-73
2022/01/26 03:19:42;;;;;;;30.08;12.63;;;;;;;3.26;100.00;102072.59;5014634;28;20875;-74
2022/01/26 03:33:10;;;;;;;32.13;16.03;;;;;;;3.20;100.00;102058.75;5035983;28;20081;-74
2022/01/26 03:35:50;;;;;;;35.47;17.83;;;;;;;3.20;100.00;102056.16;5030652;28;20487;-74
2022/01/26 03:38:22;;;;;;;33.53;16.92;;;;;;;3.20;100.00;102056.16;5012292;28;20099;-74
2022/01/26 03:40:59;;;;;;;38.03;18.48;;;;;;;3.19;100.00;102054.41;5043144;28;20064;-74
2022/01/26 03:43:26;;;;;;;46.67;18.92;;;;;;;3.14;100.00;102051.81;5032488;28;20529;-74
2022/01/26 03:45:54;;;;;;;40.65;19.13;;;;;;;3.15;100.00;102058.78;5056805;28;20132;-74
2022/01/26 03:48:21;;;;;;;40.75;18.85;;;;;;;3.10;100.00;102059.66;5016502;28;20099;-75
2022/01/26 03:50:48;;;;;;;46.40;19.77;;;;;;;3.08;100.00;102054.47;5023754;28;20063;-74
2022/01/26 03:53:15;;;;;;;48.80;19.63;;;;;;;3.04;100.00;102063.16;5054424;28;20056;-74
2022/01/26 03:55:42;;;;;;;43.13;20.35;;;;;;;3.02;100.00;102057.09;5027141;28;20564;-73
2022/01/26 03:58:10;;;;;;;39.28;17.88;;;;;;;3.06;100.00;102074.41;5042516;28;20201;-74
2022/01/26 04:00:38;;;;;;;34.72;15.88;;;;;;;3.00;100.00;102075.31;5039132;28;20404;-74
2022/01/26 04:03:09;;;;;;;34.35;15.48;;;;;;;3.03;100.00;102066.63;5018482;28;20056;-74
2022/01/26 04:05:37;;;;;;;29.98;13.60;;;;;;;3.01;100.00;102060.56;5025276;28;20553;-73
2022/01/26 04:08:11;;;;;;;32.53;15.23;;;;;;;2.99;100.00;102057.13;5027820;28;20488;-73
2022/01/26 04:11:01;;;;;;;27.60;12.35;;;;;;;2.96;100.00;102052.78;5023093;28;20079;-73
2022/01/26 04:13:28;;;;;;;30.02;13.75;;;;;;;2.99;100.00;102047.56;5025058;28;20069;-73
2022/01/26 04:15:55;;;;;;;30.45;14.15;;;;;;;2.94;100.00;102054.53;5032856;28;20079;-73
2022/01/26 04:18:29;;;;;;;34.58;15.15;;;;;;;2.96;100.00;102050.16;5035091;28;20224;-74
2022/01/26 04:21:01;;;;;;;34.72;14.88;;;;;;;3.00;100.00;102038.88;5031979;28;20056;-73
2022/01/26 04:23:38;;;;;;;36.20;15.75;;;;;;;3.05;100.00;102044.06;5039171;28;20053;-73
2022/01/26 04:26:06;;;;;;;35.45;16.42;;;;;;;3.02;100.00;102041.50;5044079;28;20053;-73
2022/01/26 04:28:49;;;;;;;34.80;16.13;;;;;;;3.03;100.00;102038.88;5014106;28;20527;-73
2022/01/26 04:31:19;;;;;;;33.08;16.10;;;;;;;3.05;100.00;102042.31;5044909;28;20057;-74
2022/01/26 04:33:46;;;;;;;31.95;15.05;;;;;;;3.04;100.00;102043.19;5048380;28;20183;-73
2022/01/26 04:36:19;;;;;;;30.58;15.23;;;;;;;3.00;100.00;102038.88;5042084;28;20593;-73
2022/01/26 04:38:51;;;;;;;34.03;16.52;;;;;;;3.01;100.00;102034.53;5013562;28;20746;-73
2022/01/26 04:43:52;;;;;;;33.97;16.08;;;;;;;3.03;100.00;102030.22;5031281;28;20045;-73
2022/01/26 04:46:20;;;;;;;34.30;15.68;;;;;;;2.97;100.00;102025.91;5037551;28;20141;-74
2022/01/26 04:48:47;;;;;;;34.13;15.23;;;;;;;2.97;100.00;102045.84;5038732;28;20048;-74
2022/01/26 04:51:14;;;;;;;37.85;17.10;;;;;;;2.92;100.00;102032.00;5043024;28;20045;-73
2022/01/26 04:53:41;;;;;;;35.15;15.55;;;;;;;2.94;100.00;102036.31;5040252;28;20526;-73
2022/01/26 04:56:08;;;;;;;28.63;13.85;;;;;;;2.89;100.00;102032.88;5008213;28;20048;-73
2022/01/26 04:58:35;;;;;;;33.90;15.65;;;;;;;2.88;100.00;102033.75;5035717;28;20057;-73
2022/01/26 05:01:02;;;;;;;31.00;15.05;;;;;;;2.88;100.00;102038.97;5010373;28;20057;-74
2022/01/26 05:03:30;;;;;;;35.72;16.58;;;;;;;2.83;100.00;102032.91;5036132;28;20140;-73
2022/01/26 05:05:57;;;;;;;39.22;16.90;;;;;;;2.80;100.00;102038.13;4994975;28;20522;-73
2022/01/26 05:08:24;;;;;;;34.95;16.02;;;;;;;2.86;100.00;102030.28;5039148;28;20056;-73
2022/01/26 05:10:51;;;;;;;29.63;14.73;;;;;;;2.76;100.00;102033.81;5026100;28;20459;-72
2022/01/26 05:13:18;;;;;;;28.85;14.13;;;;;;;2.76;100.00;102021.66;5055510;28;20076;-72
2022/01/26 05:15:46;;;;;;;33.47;14.25;;;;;;;2.79;100.00;102019.06;5007500;28;20056;-73
2022/01/26 05:18:13;;;;;;;34.42;15.05;;;;;;;2.78;100.00;102013.84;5025161;28;20676;-73
2022/01/26 05:21:41;;;;;;;34.95;14.68;;;;;;;2.85;100.00;102012.97;5008972;28;20067;-75
2022/01/26 05:24:10;;;;;;;27.85;13.40;;;;;;;2.87;100.00;102013.81;4952963;28;20138;-75
2022/01/26 05:26:39;;;;;;;33.25;14.05;;;;;;;2.82;100.00;102012.09;5031568;28;20040;-74
2022/01/26 05:29:12;;;;;;;31.38;14.23;;;;;;;2.86;100.00;102019.03;5024163;28;20067;-74
2022/01/26 05:31:39;;;;;;;32.15;15.50;;;;;;;2.84;100.00;102008.63;5035856;28;20059;-74
2022/01/26 05:34:07;;;;;;;32.58;14.20;;;;;;;2.78;100.00;102022.50;5011463;28;20065;-73
2022/01/26 05:36:34;;;;;;;26.42;12.32;;;;;;;2.79;100.00;102018.16;5019539;28;20060;-72
2022/01/26 05:39:03;;;;;;;23.92;11.35;;;;;;;2.73;100.00;102007.81;5043063;28;20045;-72
2022/01/26 05:41:30;;;;;;;27.65;13.13;;;;;;;2.75;100.00;102006.94;5038677;28;20634;-74
2022/01/26 05:43:58;;;;;;;27.67;12.45;;;;;;;2.72;100.00;102013.88;5008360;28;20049;-72
2022/01/26 05:46:42;;;;;;;23.17;11.02;;;;;;;2.69;100.00;102021.69;5007982;28;20053;-73
2022/01/26 05:49:10;;;;;;;26.52;12.75;;;;;;;2.59;100.00;102027.81;5017042;28;20049;-74
2022/01/26 05:51:38;;;;;;;21.80;10.73;;;;;;;2.58;100.00;102021.75;5032773;28;20247;-74
2022/01/26 05:54:07;;;;;;;21.63;10.23;;;;;;;2.62;100.00;102010.47;5029564;28;20052;-75
2022/01/26 05:56:35;;;;;;;22.95;11.18;;;;;;;2.56;100.00;102012.19;5025083;28;20614;-72
2022/01/26 05:59:02;;;;;;;22.98;11.13;;;;;;;2.52;100.00;102012.25;5028199;28;20033;-75
2022/01/26 06:01:29;;;;;;;20.95;9.77;;;;;;;2.52;100.00;102007.03;5046132;28;20045;-74
2022/01/26 06:03:57;;;;;;;22.23;10.45;;;;;;;2.52;100.00;102011.34;5027175;28;20052;-74
2022/01/26 06:06:24;;;;;;;22.45;10.38;;;;;;;2.51;100.00;102007.88;5015193;28;20040;-74
2022/01/26 06:08:51;;;;;;;28.75;12.23;;;;;;;2.53;100.00;102006.16;5047211;28;20068;-73
2022/01/26 06:11:18;;;;;;;25.05;11.15;;;;;;;2.57;100.00;102011.31;5054396;28;20076;-73
2022/01/26 06:13:46;;;;;;;31.75;13.27;;;;;;;2.55;100.00;102006.16;5035361;28;20140;-74
2022/01/26 06:16:14;;;;;;;23.80;11.18;;;;;;;2.50;100.00;102006.16;5030583;28;20124;-74
2022/01/26 06:18:43;;;;;;;25.88;11.20;;;;;;;2.54;100.00;102007.88;5030065;28;21036;-73
2022/01/26 06:21:11;;;;;;;25.90;11.45;;;;;;;2.58;100.00;102010.47;5028302;28;20045;-75
2022/01/26 06:23:38;;;;;;;23.35;10.93;;;;;;;2.45;100.00;102007.06;5033097;28;20546;-75
2022/01/26 06:26:06;;;;;;;27.15;11.90;;;;;;;2.44;100.00;102007.94;5020915;22;20099;-62
2022/01/26 06:28:34;;;;;;;25.85;11.35;;;;;;;2.45;100.00;102018.31;5022871;28;20060;-60
2022/01/26 06:31:11;;;;;;;27.23;12.63;;;;;;;2.47;100.00;102010.50;5023691;28;20168;-62
2022/01/26 06:33:39;;;;;;;28.77;11.82;;;;;;;2.48;100.00;102017.44;5003677;28;20054;-64
2022/01/26 06:36:08;;;;;;;28.50;12.93;;;;;;;2.39;100.00;102013.16;5007888;28;20046;-62
2022/01/26 06:38:35;;;;;;;27.05;12.98;;;;;;;2.35;100.00;102006.22;5007791;28;20058;-63
2022/01/26 06:41:06;;;;;;;27.75;12.27;;;;;;;2.39;100.00;102004.50;5005110;28;20084;-63
2022/01/26 06:43:33;;;;;;;33.33;13.25;;;;;;;2.39;100.00;101988.91;5008477;28;20050;-64
2022/01/26 06:46:04;;;;;;;34.08;13.38;;;;;;;2.37;100.00;101988.00;5006016;28;20057;-64
2022/01/26 06:51:05;;;;;;;31.52;13.27;;;;;;;2.39;100.00;101989.75;4994366;28;20145;-62
2022/01/26 06:53:32;;;;;;;34.40;13.65;;;;;;;2.44;100.00;101988.00;5003200;28;20056;-62
2022/01/26 06:55:59;;;;;;;28.27;13.20;;;;;;;2.44;100.00;101993.19;5005547;28;20528;-62
2022/01/26 06:58:26;;;;;;;30.02;13.23;;;;;;;2.48;100.00;101996.66;5007234;28;20049;-62
2022/01/26 07:00:53;;;;;;;36.03;15.02;;;;;;;2.37;100.00;101991.47;5003394;28;20426;-62
2022/01/26 07:03:21;;;;;;;41.08;15.18;;;;;;;2.33;100.00;101983.69;5005040;28;20057;-62
2022/01/26 07:05:48;;;;;;;42.28;15.73;;;;;;;2.31;100.00;101999.31;5001832;28;20864;-63
2022/01/26 07:08:15;;;;;;;38.00;15.35;;;;;;;2.28;100.00;101988.91;5016801;28;20067;-62
2022/01/26 07:10:47;;;;;;;35.95;14.63;;;;;;;2.32;100.00;102001.03;5002557;28;20062;-63
2022/01/26 07:13:14;;;;;;;36.90;14.63;;;;;;;2.34;100.00;101996.66;5005188;28;20057;-62
2022/01/26 07:21:26;;;;;;;39.33;15.88;;;;;;;2.35;100.00;102002.75;4998139;28;20062;-59
2022/01/26 07:23:55;;;;;;;40.92;16.17;;;;;;;2.33;100.00;102007.94;5004988;28;20076;-63
2022/01/26 07:26:27;;;;;;;35.85;14.45;;;;;;;2.35;100.00;102010.56;5005557;28;20067;-64
2022/01/26 07:28:58;;;;;;;34.47;14.18;;;;;;;2.33;100.00;102000.16;4999937;28;20104;-63
2022/01/26 07:31:26;;;;;;;35.90;15.23;;;;;;;2.37;100.00;102004.47;5002552;28;20157;-62
2022/01/26 07:33:55;;;;;;;39.20;15.90;;;;;;;2.38;100.00;102013.13;5006557;28;20050;-63
2022/01/26 07:36:24;;;;;;;32.35;14.35;;;;;;;2.35;100.00;101995.81;5006859;28;20050;-62
2022/01/26 07:38:54;;;;;;;38.80;15.40;;;;;;;2.41;100.00;101998.41;5003409;28;20472;-62
2022/01/26 07:41:21;;;;;;;35.58;15.30;;;;;;;2.41;100.00;101998.41;5001641;28;20057;-63
2022/01/26 07:43:48;;;;;;;36.35;15.10;;;;;;;2.43;100.00;102000.97;4999564;28;20059;-62
2022/01/26 07:46:17;;;;;;;33.90;14.80;;;;;;;2.45;100.00;101984.53;5001259;28;20153;-65
2022/01/26 07:48:44;;;;;;;37.30;14.20;;;;;;;2.41;100.00;101997.53;4998192;28;20053;-63
2022/01/26 07:51:11;;;;;;;36.90;15.57;;;;;;;2.40;100.00;101985.41;5002864;28;20616;-60
2022/01/26 07:53:39;;;;;;;35.17;14.57;;;;;;;2.43;100.00;101993.19;5002707;28;20046;-61
2022/01/26 07:56:06;;;;;;;37.88;14.88;;;;;;;2.49;100.00;101993.19;5002758;28;20132;-63
2022/01/26 07:58:34;;;;;;;32.13;13.73;;;;;;;2.57;100.00;101987.94;5005093;28;20502;-63
2022/01/26 08:01:01;;;;;;;35.08;14.10;;;;;;;2.57;100.00;101999.22;4999429;28;20128;-63
2022/01/26 08:03:33;;;;;;;35.72;15.25;;;;;;;2.53;100.00;102000.09;4999902;28;20050;-63
2022/01/26 08:06:03;;;;;;;38.00;16.02;;;;;;;2.54;100.00;102007.03;4987290;28;20049;-65
2022/01/26 08:08:30;;;;;;;35.05;14.57;;;;;;;2.51;100.00;102007.88;5000394;28;20144;-62
2022/01/26 08:10:58;;;;;;;33.58;14.43;;;;;;;2.51;100.00;101994.03;4994956;28;20143;-61
2022/01/26 08:13:26;;;;;;;39.17;14.75;;;;;;;2.46;100.00;102011.38;5005732;28;20137;-65
2022/01/26 08:15:56;;;;;;;39.78;13.90;;;;;;;2.49;100.00;102016.56;5002292;28;20092;-62
2022/01/26 08:18:24;;;;;;;41.00;16.85;;;;;;;2.47;100.00;102019.16;4999712;28;20080;-64
2022/01/26 08:20:52;;;;;;;36.45;14.73;;;;;;;2.47;100.00;102010.50;4996821;28;20066;-61
2022/01/26 08:23:21;;;;;;;37.65;15.40;;;;;;;2.40;100.00;102008.81;4980964;28;20141;-63
2022/01/26 08:25:51;;;;;;;36.88;14.95;;;;;;;2.46;100.00;102016.56;4995714;28;20586;-61
2022/01/26 08:28:27;;;;;;;43.67;16.10;;;;;;;2.50;100.00;102018.28;4996322;28;20049;-62
2022/01/26 08:30:54;;;;;;;39.10;15.15;;;;;;;2.53;100.00;102015.69;4992931;28;20054;-62
2022/01/26 08:33:21;;;;;;;37.50;15.15;;;;;;;2.51;100.00;102015.69;5003074;28;20129;-62
2022/01/26 08:35:49;;;;;;;42.70;16.10;;;;;;;2.51;100.00;102002.69;5000233;28;20471;-64
2022/01/26 08:38:16;;;;;;;33.47;14.45;;;;;;;2.51;100.00;102000.09;5000351;28;20050;-63
2022/01/26 08:40:44;;;;;;;37.08;15.45;;;;;;;2.59;100.00;101988.81;4999950;28;20554;-63
2022/01/26 08:43:11;;;;;;;39.88;16.33;;;;;;;2.52;100.00;101990.53;5004862;28;20054;-64
2022/01/26 08:45:39;;;;;;;36.85;15.15;;;;;;;2.53;100.00;101990.56;5002278;28;20077;-63
2022/01/26 08:48:06;;;;;;;36.72;14.23;;;;;;;2.63;100.00;102000.94;5004523;28;20547;-63
2022/01/26 08:50:34;;;;;;;31.50;14.55;;;;;;;2.52;100.00;101999.25;4977823;28;20052;-63
2022/01/26 08:53:02;;;;;;;31.98;14.23;;;;;;;2.58;100.00;102002.69;5004658;28;20049;-63
2022/01/26 08:55:29;;;;;;;32.65;13.98;;;;;;;2.57;100.00;101998.31;4990579;28;20506;-64
2022/01/26 08:57:56;;;;;;;31.80;13.48;;;;;;;2.59;100.00;101981.88;5002721;28;20080;-63
2022/01/26 09:00:23;;;;;;;30.48;12.95;;;;;;;2.70;100.00;101990.50;5001897;28;20054;-63
2022/01/26 09:02:53;;;;;;;31.85;13.80;;;;;;;2.73;100.00;101997.41;5005310;28;20128;-63
2022/01/26 09:05:20;;;;;;;32.63;14.60;;;;;;;2.79;100.00;102007.78;5003667;28;20053;-63
2022/01/26 09:07:50;;;;;;;33.00;13.55;;;;;;;2.75;100.00;102003.47;4998931;28;20097;-66
2022/01/26 09:10:17;;;;;;;28.05;13.63;;;;;;;2.78;100.00;102011.25;5002846;28;20050;-63
2022/01/26 09:12:45;;;;;;;27.90;12.20;;;;;;;2.68;100.00;102012.16;5004406;28;20145;-61
2022/01/26 09:15:13;;;;;;;26.75;12.95;;;;;;;2.70;100.00;102005.22;5005470;28;20046;-62
2022/01/26 09:17:42;;;;;;;32.17;12.90;;;;;;;2.71;100.00;102000.03;5001754;28;20053;-63
2022/01/26 09:20:09;;;;;;;25.80;13.18;;;;;;;2.73;100.00;101998.25;5003746;28;20136;-62
2022/01/26 09:22:37;;;;;;;29.80;12.85;;;;;;;2.76;100.00;102003.47;5005454;28;20049;-63
2022/01/26 09:25:04;;;;;;;32.03;14.05;;;;;;;2.73;100.00;101998.25;5007295;28;20085;-62
2022/01/26 09:27:31;;;;;;;27.90;11.98;;;;;;;2.73;100.00;102011.28;5011611;28;20134;-63
2022/01/26 09:29:59;;;;;;;30.88;13.13;;;;;;;2.72;100.00;102011.28;5002701;28;20108;-62
2022/01/26 09:32:26;;;;;;;28.25;13.27;;;;;;;2.71;100.00;102010.44;4995831;28;20061;-63
2022/01/26 09:34:53;;;;;;;25.70;12.20;;;;;;;2.73;100.00;102013.00;5005419;28;20141;-63
2022/01/26 09:37:20;;;;;;;29.20;12.15;;;;;;;2.77;100.00;102010.38;5005770;28;20060;-63
2022/01/26 09:39:48;;;;;;;31.70;13.43;;;;;;;2.85;100.00;101997.34;5003541;28;20054;-62
2022/01/26 09:42:16;;;;;;;28.77;12.60;;;;;;;2.94;100.00;101994.72;5004428;28;20060;-62
2022/01/26 09:44:44;;;;;;;26.67;11.70;;;;;;;2.85;100.00;101986.94;5006605;28;20068;-63
2022/01/26 09:47:11;;;;;;;27.13;11.38;;;;;;;2.84;100.00;101994.75;5003674;28;20049;-63
2022/01/26 09:49:39;;;;;;;25.20;11.50;;;;;;;2.79;100.00;101997.38;5002623;28;20496;-63
2022/01/26 09:52:14;;;;;;;27.23;12.00;;;;;;;2.71;100.00;102001.75;5000829;28;20454;-63
2022/01/26 09:54:42;;;;;;;25.88;11.48;;;;;;;2.70;100.00;101993.09;5005415;28;20062;-63
2022/01/26 09:57:26;;;;;;;23.85;11.82;;;;;;;2.70;100.00;101990.50;5006678;28;20070;-60
2022/01/26 09:59:53;;;;;;;25.17;11.13;;;;;;;2.78;100.00;101988.69;5005538;28;20080;-62
2022/01/26 10:02:22;;;;;;;26.25;12.05;;;;;;;2.69;100.00;102006.09;5007699;28;20050;-64
2022/01/26 10:05:05;;;;;;;23.67;11.25;;;;;;;2.67;100.00;102016.50;5008897;28;20049;-62
2022/01/26 10:07:47;;;;;;;22.60;10.48;;;;;;;2.73;100.00;102019.06;5005023;28;20057;-62
2022/01/26 10:15:39;;;;;;;24.48;11.75;;;;;;;2.70;100.00;102007.81;5002813;28;20449;-63
2022/01/26 10:18:10;;;;;;;23.90;11.15;;;;;;;2.72;100.00;102008.69;5006933;28;20052;-61
2022/01/26 10:20:44;;;;;;;24.50;12.18;;;;;;;2.72;100.00;102011.28;5001136;28;20502;-62
2022/01/26 10:23:16;;;;;;;26.55;11.98;;;;;;;2.75;100.00;102012.16;5008550;28;20088;-63
2022/01/26 10:25:47;;;;;;;26.80;13.18;;;;;;;2.74;100.00;102010.38;5008376;28;20149;-60
2022/01/26 10:28:15;;;;;;;26.55;11.68;;;;;;;2.74;100.00;101997.38;5005866;28;20121;-62
2022/01/26 10:30:47;;;;;;;25.05;12.38;;;;;;;2.76;100.00;101992.19;5003872;28;20061;-62
2022/01/26 10:33:15;;;;;;;27.05;12.50;;;;;;;2.81;100.00;101990.44;5008820;28;20455;-63
2022/01/26 10:35:43;;;;;;;24.55;11.93;;;;;;;2.87;100.00;102000.81;5001465;28;20062;-63
2022/01/26 10:38:10;;;;;;;23.65;12.07;;;;;;;2.97;100.00;102001.59;5005040;28;20510;-63
2022/01/26 10:40:39;;;;;;;21.92;11.40;;;;;;;3.10;100.00;101995.47;5006635;28;20057;-61
2022/01/26 10:43:12;;;;;;;24.00;10.98;;;;;;;3.46;100.00;101990.88;5008440;28;20169;-62
2022/01/26 10:46:04;;;;;;;18.77;9.75;;;;;;;3.74;100.00;102001.97;5004697;28;20060;-62
2022/01/26 10:48:41;;;;;;;20.80;9.20;;;;;;;3.67;100.00;102002.88;5006508;28;20052;-63
2022/01/26 10:51:38;;;;;;;22.25;8.93;;;;;;;3.63;100.00;101994.22;5003002;28;20053;-63
2022/01/26 10:54:12;;;;;;;19.55;8.85;;;;;;;3.57;100.00;102004.69;5007425;28;20490;-62
2022/01/26 10:56:39;;;;;;;19.83;9.05;;;;;;;3.48;100.00;101997.81;5003404;28;20080;-63
2022/01/26 10:59:08;;;;;;;15.77;9.25;;;;;;;3.40;100.00;101991.81;4999482;28;20049;-63
2022/01/26 11:01:35;;;;;;;16.40;8.55;;;;;;;3.47;100.00;102003.06;5001325;28;20054;-62
2022/01/26 11:04:03;;;;;;;16.15;7.25;;;;;;;3.25;100.00;102003.19;5008251;28;20054;-62
2022/01/26 11:06:31;;;;;;;11.57;6.32;;;;;;;3.15;100.00;102003.25;5008295;28;20056;-61
2022/01/26 11:09:10;;;;;;;14.15;6.38;;;;;;;3.22;100.00;101991.94;5002964;28;20050;-62
2022/01/26 11:11:40;;;;;;;14.77;6.88;;;;;;;3.23;100.00;101993.66;5007758;28;20056;-61
2022/01/26 11:14:13;;;;;;;12.48;6.10;;;;;;;3.14;100.00;101984.16;5005174;28;20375;-62
2022/01/26 11:17:00;;;;;;;13.32;7.13;;;;;;;3.30;100.00;101997.97;4998717;28;20532;-62
2022/01/26 11:19:27;;;;;;;16.67;7.38;;;;;;;3.23;100.00;101991.91;5000880;28;20042;-63
2022/01/26 11:22:05;;;;;;;13.27;7.32;;;;;;;3.05;100.00;101998.09;5004140;28;20407;-62
2022/01/26 11:24:53;;;;;;;15.32;8.48;;;;;;;3.06;100.00;101996.34;5003623;28;20196;-62
2022/01/26 11:27:20;;;;;;;12.15;7.03;;;;;;;2.98;100.00;101988.63;5002063;28;20045;-62
2022/01/26 11:29:53;;;;;;;13.95;7.70;;;;;;;2.91;100.00;101993.84;5001762;28;20581;-61
2022/01/26 11:32:34;;;;;;;11.90;7.22;;;;;;;2.89;100.00;101990.41;5003587;28;20566;-62
2022/01/26 11:35:04;;;;;;;17.55;7.82;;;;;;;2.88;100.00;101991.25;5000943;28;20058;-63
2022/01/26 11:37:44;;;;;;;16.23;7.93;;;;;;;2.72;100.00;101975.75;5003290;28;20133;-61
2022/01/26 11:46:07;;;;;;;18.13;8.10;;;;;;;2.40;100.00;101994.06;5000388;28;20087;-61
2022/01/26 11:48:35;;;;;;;19.73;8.50;;;;;;;2.40;100.00;101988.88;5001872;28;20044;-51
2022/01/26 11:51:04;;;;;;;16.80;8.68;;;;;;;2.54;100.00;101976.69;5002987;28;20056;-63
2022/01/26 11:53:31;;;;;;;20.23;10.43;;;;;;;2.38;100.00;101980.19;4996113;28;20077;-62
2022/01/26 11:56:07;;;;;;;18.70;10.02;;;;;;;2.33;100.00;101975.91;5002323;28;20396;-62
2022/01/26 11:58:40;;;;;;;19.65;9.75;;;;;;;2.34;100.00;101972.41;4999745;28;20116;-62
2022/01/26 12:01:27;;;;;;;17.63;8.68;;;;;;;2.37;100.00;101970.69;5004148;28;20045;-64
2022/01/26 12:04:08;;;;;;;17.20;8.85;;;;;;;2.25;100.00;101956.03;4988369;28;20056;-62
2022/01/26 12:06:42;;;;;;;21.30;8.23;;;;;;;2.30;100.00;101956.00;5002440;28;20600;-64
2022/01/26 12:09:10;;;;;;;17.40;8.02;;;;;;;2.33;100.00;101955.97;5001934;28;20446;-62
2022/01/26 12:11:37;;;;;;;18.17;8.50;;;;;;;2.41;100.00;101951.63;5001649;28;20042;-61
2022/01/26 12:14:13;;;;;;;17.88;7.63;;;;;;;2.42;100.00;101940.34;5001285;28;20060;-61
2022/01/26 12:16:44;;;;;;;16.67;7.40;;;;;;;2.31;100.00;101944.72;4998779;28;20081;-63
2022/01/26 12:19:28;;;;;;;18.75;8.70;;;;;;;2.22;100.00;101943.03;5003051;28;20086;-63
2022/01/26 12:32:09;;;;;;;20.63;9.48;;;;;;;2.19;100.00;101930.03;5002684;28;20049;-64
2022/01/26 12:33:57;;;;;;;;;;;;;;;2.24;100.00;101945.63;5001658;28;20497;-63
2022/01/26 12:36:53;;;;;;;20.60;9.85;;;;;;;2.27;100.00;101920.50;5002440;28;20035;-63
2022/01/26 12:41:14;;;;;;;16.63;8.63;;;;;;;2.29;100.00;101928.25;4998603;28;20134;-63
2022/01/26 12:42:12;;;;;;;20.42;8.77;;;;;;;2.24;100.00;101914.44;5003727;28;20081;-63
2022/01/26 12:44:39;;;;;;;14.13;7.80;;;;;;;2.25;100.00;101885.88;5003052;28;20153;-63
2022/01/26 12:47:07;;;;;;;17.77;8.30;;;;;;;2.23;100.00;101885.00;4999996;28;20061;-62
2022/01/26 12:49:34;;;;;;;17.02;7.88;;;;;;;2.34;100.00;101877.13;5004269;28;20042;-63
2022/01/26 12:52:01;;;;;;;15.15;7.68;;;;;;;2.46;100.00;101884.03;5003248;28;20165;-63
2022/01/26 12:54:28;;;;;;;21.42;8.13;;;;;;;2.50;100.00;101877.94;5002500;28;20140;-61
2022/01/26 12:57:06;;;;;;;16.98;6.28;;;;;;;2.50;100.00;101885.72;5001213;28;20108;-62
2022/01/26 12:59:34;;;;;;;15.65;7.43;;;;;;;2.48;100.00;101884.91;5003149;28;20043;-62
2022/01/26 13:02:01;;;;;;;17.75;6.90;;;;;;;2.37;100.00;101900.53;4999222;28;20062;-63